Time;durP1;ratioP1;P1;durP2;ratioP2;P2;SDS_P1;SDS_P2;PMS_P1;PMS_P2;Temp;Humidity;BMP_temperature;BMP_pressure;BME280_temperature;BME280_humidity;BME280_pressure;Samples;Min_cycle;Max_cycle;Signal;HPM_P1;HPM_P2
2022/05/15 00:00:44;;;;;;;12.32;4.45;;;15.90;99.90;;;;;;5033836;28;20640;-56
2022/05/15 00:03:17;;;;;;;8.85;4.63;;;15.90;99.90;;;;;;5033892;28;20219;-55
2022/05/15 00:05:43;;;;;;;6.40;4.78;;;15.80;99.90;;;;;;5033748;28;20653;-56
2022/05/15 00:08:10;;;;;;;6.88;4.05;;;15.70;99.90;;;;;;5033921;28;20175;-55
2022/05/15 00:10:40;;;;;;;5.78;4.20;;;15.70;99.90;;;;;;5033692;28;20171;-56
2022/05/15 00:13:06;;;;;;;8.82;4.22;;;15.70;99.90;;;;;;5033592;28;20257;-59
2022/05/15 00:15:34;;;;;;;6.05;4.22;;;15.70;99.90;;;;;;5033593;28;20168;-55
2022/05/15 00:18:00;;;;;;;7.28;4.47;;;15.50;99.90;;;;;;5033830;28;20179;-56
2022/05/15 00:20:25;;;;;;;7.30;4.32;;;15.40;99.90;;;;;;5033509;28;20160;-56
2022/05/15 00:22:51;;;;;;;7.53;4.55;;;15.40;99.90;;;;;;5033689;28;20183;-57
2022/05/15 00:25:17;;;;;;;7.63;4.43;;;15.40;99.90;;;;;;5033409;28;20176;-61
2022/05/15 00:27:42;;;;;;;12.32;5.15;;;15.40;99.90;;;;;;5033404;28;20270;-56
2022/05/15 00:30:09;;;;;;;9.02;4.65;;;15.40;99.90;;;;;;5033887;28;20636;-55
2022/05/15 00:32:34;;;;;;;12.38;5.57;;;15.40;99.90;;;;;;5033164;28;20240;-57
2022/05/15 00:35:00;;;;;;;7.57;4.75;;;15.30;99.90;;;;;;5033212;28;20172;-55
2022/05/15 00:37:25;;;;;;;9.40;5.32;;;15.30;99.90;;;;;;5033491;28;20253;-57
2022/05/15 00:39:52;;;;;;;7.95;5.03;;;15.30;99.90;;;;;;5033096;28;20175;-58
2022/05/15 00:42:17;;;;;;;8.43;5.55;;;15.20;99.90;;;;;;5033114;28;20169;-56
2022/05/15 00:44:43;;;;;;;6.80;4.90;;;15.20;99.90;;;;;;5033074;28;20168;-56
2022/05/15 00:47:08;;;;;;;8.95;5.35;;;15.20;99.90;;;;;;5033259;28;20164;-55
2022/05/15 00:49:36;;;;;;;10.82;5.25;;;15.20;99.90;;;;;;5032909;28;20163;-55
2022/05/15 00:52:07;;;;;;;13.45;5.38;;;15.20;99.90;;;;;;5033065;28;20178;-55
2022/05/15 00:54:40;;;;;;;9.32;5.05;;;15.20;99.90;;;;;;5032878;28;20171;-55
2022/05/15 00:57:18;;;;;;;6.82;4.60;;;15.00;99.90;;;;;;5032846;28;20160;-55
2022/05/15 00:59:55;;;;;;;11.50;5.35;;;15.00;99.90;;;;;;5033017;28;20174;-55
2022/05/15 01:02:22;;;;;;;11.90;5.18;;;15.00;99.90;;;;;;5032693;28;20174;-56
2022/05/15 01:04:47;;;;;;;9.95;4.82;;;15.00;99.90;;;;;;5032543;28;20256;-60
2022/05/15 01:07:13;;;;;;;8.60;5.07;;;15.00;99.90;;;;;;5031971;28;20258;-59
2022/05/15 01:09:39;;;;;;;14.50;5.28;;;14.90;99.90;;;;;;5033081;28;20171;-62
2022/05/15 01:12:05;;;;;;;10.15;5.47;;;14.90;99.90;;;;;;5032506;28;20175;-58
2022/05/15 01:14:31;;;;;;;12.98;5.30;;;14.90;99.90;;;;;;5032501;28;20513;-56
2022/05/15 01:16:57;;;;;;;7.55;5.32;;;14.90;99.90;;;;;;5031191;28;20325;-60
2022/05/15 01:19:31;;;;;;;9.85;5.72;;;14.80;99.90;;;;;;5032439;28;20258;-56
2022/05/15 01:21:58;;;;;;;13.18;7.03;;;14.90;99.90;;;;;;5032678;28;20167;-61
2022/05/15 01:24:24;;;;;;;12.73;6.82;;;14.80;99.90;;;;;;5032399;28;20163;-56
2022/05/15 01:26:50;;;;;;;11.82;6.50;;;14.70;99.90;;;;;;5032333;28;20166;-56
2022/05/15 01:29:16;;;;;;;10.75;6.22;;;14.60;99.90;;;;;;5032300;28;20175;-55
2022/05/15 01:31:43;;;;;;;13.38;6.43;;;14.50;99.90;;;;;;5032309;28;20167;-56
2022/05/15 01:34:10;;;;;;;7.55;5.88;;;14.50;99.90;;;;;;5032430;28;20294;-55
2022/05/15 01:36:36;;;;;;;12.00;5.63;;;14.40;99.90;;;;;;5032187;28;20539;-55
2022/05/15 01:39:04;;;;;;;10.23;5.80;;;14.40;99.90;;;;;;5032161;28;20195;-58
2022/05/15 01:41:29;;;;;;;8.35;5.70;;;14.40;99.90;;;;;;5032172;28;20625;-58
2022/05/15 01:43:55;;;;;;;9.15;6.13;;;14.40;99.90;;;;;;5032086;28;20163;-60
2022/05/15 01:46:23;;;;;;;9.40;6.32;;;14.50;99.90;;;;;;5032322;28;20182;-56
2022/05/15 01:48:50;;;;;;;15.90;7.03;;;14.50;99.90;;;;;;5032165;28;20218;-58
2022/05/15 01:51:16;;;;;;;14.77;6.40;;;14.50;99.90;;;;;;5031968;28;20555;-58
2022/05/15 01:53:41;;;;;;;16.23;7.68;;;14.50;99.90;;;;;;5032226;28;20207;-59
2022/05/15 01:56:07;;;;;;;13.48;7.00;;;14.50;99.90;;;;;;5032219;28;20166;-55
2022/05/15 01:58:33;;;;;;;15.48;6.90;;;14.40;99.90;;;;;;5031948;28;20175;-60
2022/05/15 02:00:59;;;;;;;10.45;6.63;;;14.30;99.90;;;;;;5031939;28;20532;-56
2022/05/15 02:03:24;;;;;;;11.35;6.78;;;14.20;99.90;;;;;;5031767;28;20207;-60
2022/05/15 02:05:50;;;;;;;8.05;5.95;;;14.20;99.90;;;;;;5031943;28;20604;-58
2022/05/15 02:08:17;;;;;;;9.73;6.53;;;14.20;99.90;;;;;;5032128;28;20168;-59
2022/05/15 02:10:44;;;;;;;11.00;6.95;;;14.20;99.90;;;;;;5032124;28;20203;-61
2022/05/15 02:13:10;;;;;;;12.65;6.53;;;14.20;99.90;;;;;;5032086;28;20680;-58
2022/05/15 02:15:35;;;;;;;15.68;7.13;;;14.20;99.90;;;;;;5032083;28;20178;-62
2022/05/15 02:18:02;;;;;;;8.40;6.85;;;14.20;99.90;;;;;;5031774;28;20181;-58
2022/05/15 02:20:28;;;;;;;13.25;6.95;;;14.20;99.90;;;;;;5035061;28;20175;-59
2022/05/15 02:22:54;;;;;;;14.10;6.53;;;14.20;99.90;;;;;;5035930;28;20164;-55
2022/05/15 02:25:19;;;;;;;12.55;7.45;;;14.20;99.90;;;;;;5035694;28;20175;-55
2022/05/15 02:27:46;;;;;;;13.10;7.55;;;14.20;99.90;;;;;;5035574;28;20246;-55
2022/05/15 02:30:12;;;;;;;12.75;7.93;;;14.10;99.90;;;;;;5036131;28;20175;-56
2022/05/15 02:32:38;;;;;;;13.57;7.68;;;14.10;99.90;;;;;;5035812;28;20199;-55
2022/05/15 02:35:04;;;;;;;14.60;7.30;;;14.20;99.90;;;;;;5035796;28;20507;-55
2022/05/15 02:37:30;;;;;;;11.98;7.72;;;14.10;99.90;;;;;;5035500;28;20174;-55
2022/05/15 02:39:56;;;;;;;14.02;7.90;;;14.20;99.90;;;;;;5035676;28;20171;-55
2022/05/15 02:42:21;;;;;;;13.48;7.15;;;14.20;99.90;;;;;;5034083;28;20680;-55
2022/05/15 02:44:47;;;;;;;12.70;6.82;;;14.20;99.90;;;;;;5035425;28;20179;-58
2022/05/15 02:47:13;;;;;;;9.00;6.47;;;14.10;99.90;;;;;;5035320;28;20167;-57
2022/05/15 02:52:22;;;;;;;11.48;6.85;;;14.10;99.90;;;;;;5035393;28;20198;-56
2022/05/15 02:54:48;;;;;;;16.48;8.63;;;14.10;99.90;;;;;;5035174;28;20175;-57
2022/05/15 02:57:14;;;;;;;10.23;8.43;;;14.10;99.90;;;;;;5035090;28;20194;-56
2022/05/15 02:59:39;;;;;;;11.60;8.63;;;14.00;99.90;;;;;;5035357;28;20261;-55
2022/05/15 03:02:05;;;;;;;14.35;8.02;;;13.90;99.90;;;;;;5035011;28;20196;-55
2022/05/15 03:04:32;;;;;;;12.98;8.57;;;13.90;99.90;;;;;;5034825;28;20223;-55
2022/05/15 03:06:58;;;;;;;13.00;8.00;;;14.00;99.90;;;;;;5034867;28;20287;-56
2022/05/15 03:09:23;;;;;;;10.57;7.38;;;14.00;99.90;;;;;;5034897;28;20550;-56
2022/05/15 03:11:49;;;;;;;13.68;8.05;;;13.90;99.90;;;;;;5034949;28;20175;-55
2022/05/15 03:14:15;;;;;;;14.93;8.93;;;13.90;99.90;;;;;;5034742;28;20245;-57
2022/05/15 03:16:40;;;;;;;15.77;8.45;;;13.90;99.90;;;;;;5034778;28;20172;-56
2022/05/15 03:19:06;;;;;;;10.27;7.05;;;13.90;99.90;;;;;;5034631;28;20178;-56
2022/05/15 03:21:31;;;;;;;12.93;7.47;;;13.90;99.90;;;;;;5034279;28;20203;-56
2022/05/15 03:24:06;;;;;;;14.48;8.30;;;13.90;99.90;;;;;;5034676;28;20182;-55
2022/05/15 03:26:35;;;;;;;10.85;6.63;;;13.90;99.90;;;;;;5034748;28;20357;-58
2022/05/15 03:29:01;;;;;;;8.65;6.80;;;13.80;99.90;;;;;;5034419;28;20206;-59
2022/05/15 03:31:27;;;;;;;12.80;7.72;;;13.80;99.90;;;;;;5033957;28;20482;-58
2022/05/15 03:33:52;;;;;;;10.93;7.32;;;13.80;99.90;;;;;;5034322;28;20325;-57
2022/05/15 03:36:18;;;;;;;10.82;7.45;;;13.70;99.90;;;;;;5034299;28;20191;-57
2022/05/15 03:38:46;;;;;;;13.82;7.38;;;13.70;99.90;;;;;;5034277;28;20629;-56
2022/05/15 03:41:13;;;;;;;10.40;7.38;;;13.70;99.90;;;;;;5034594;28;20220;-56
2022/05/15 03:43:38;;;;;;;11.48;7.22;;;13.70;99.90;;;;;;5034736;28;20171;-55
2022/05/15 03:46:05;;;;;;;12.80;7.70;;;13.70;99.90;;;;;;5034168;28;20170;-57
2022/05/15 03:48:31;;;;;;;12.90;8.57;;;13.70;99.90;;;;;;5034151;28;20547;-63
2022/05/15 03:50:57;;;;;;;11.90;7.95;;;13.70;99.90;;;;;;5034276;28;20164;-61
2022/05/15 03:53:24;;;;;;;12.40;8.55;;;13.70;99.90;;;;;;5034289;28;20293;-60
2022/05/15 03:55:50;;;;;;;10.30;8.02;;;13.60;99.90;;;;;;5034187;28;20213;-56
2022/05/15 03:58:16;;;;;;;9.32;7.53;;;13.60;99.90;;;;;;5034259;28;20180;-56
2022/05/15 04:00:42;;;;;;;13.15;8.60;;;13.60;99.90;;;;;;5034618;28;20221;-55
2022/05/15 04:03:08;;;;;;;14.27;8.18;;;13.60;99.90;;;;;;5034019;28;20211;-55
2022/05/15 04:05:33;;;;;;;8.77;7.05;;;13.60;99.90;;;;;;5033859;28;20206;-61
2022/05/15 04:07:59;;;;;;;12.48;7.75;;;13.60;99.90;;;;;;5033792;28;20205;-62
2022/05/15 04:10:25;;;;;;;9.60;8.20;;;13.60;99.90;;;;;;5033687;28;20229;-62
2022/05/15 04:12:51;;;;;;;9.75;7.38;;;13.50;99.90;;;;;;5033634;28;20225;-61
2022/05/15 04:15:17;;;;;;;11.55;7.80;;;13.50;99.90;;;;;;5033691;28;20233;-61
2022/05/15 04:17:45;;;;;;;10.52;7.05;;;13.60;99.90;;;;;;5033889;28;20546;-60
2022/05/15 04:20:12;;;;;;;10.23;7.50;;;13.70;99.90;;;;;;5033755;28;20240;-58
2022/05/15 04:22:38;;;;;;;11.73;7.32;;;13.70;99.90;;;;;;5033875;28;20595;-59
2022/05/15 04:25:04;;;;;;;11.43;7.30;;;13.70;99.90;;;;;;5033488;28;20195;-57
2022/05/15 04:27:30;;;;;;;10.18;7.85;;;13.80;99.90;;;;;;5033643;28;20228;-55
2022/05/15 04:29:56;;;;;;;13.00;7.90;;;13.80;99.90;;;;;;5033661;28;20187;-57
2022/05/15 04:32:21;;;;;;;10.82;7.45;;;13.80;99.90;;;;;;5033219;28;20174;-55
2022/05/15 04:34:47;;;;;;;10.35;7.57;;;13.70;99.90;;;;;;5033258;28;20183;-56
2022/05/15 04:37:13;;;;;;;12.10;7.78;;;13.80;99.90;;;;;;5033231;28;20194;-59
2022/05/15 04:39:38;;;;;;;12.45;7.97;;;13.70;99.90;;;;;;5033454;28;20198;-56
2022/05/15 04:42:04;;;;;;;9.23;7.03;;;13.90;99.90;;;;;;5032257;28;20195;-55
2022/05/15 04:44:30;;;;;;;11.93;7.97;;;14.00;99.90;;;;;;5033129;28;20245;-61
2022/05/15 04:46:55;;;;;;;9.75;7.47;;;14.00;99.90;;;;;;5033029;28;20168;-56
2022/05/15 04:49:21;;;;;;;10.32;7.60;;;14.00;99.90;;;;;;5033005;28;20254;-56
2022/05/15 04:51:46;;;;;;;10.93;7.80;;;14.00;99.90;;;;;;5032934;28;20179;-56
2022/05/15 04:54:12;;;;;;;10.93;7.72;;;14.00;99.90;;;;;;5033118;28;20203;-55
2022/05/15 04:56:38;;;;;;;13.45;7.35;;;14.10;99.90;;;;;;5033312;28;20625;-54
2022/05/15 04:59:03;;;;;;;12.25;7.55;;;14.10;99.90;;;;;;5032783;28;20246;-56
2022/05/15 05:01:29;;;;;;;11.52;7.53;;;14.20;99.90;;;;;;5032760;28;20177;-63
2022/05/15 05:03:56;;;;;;;10.13;6.75;;;14.40;99.90;;;;;;5032554;28;20302;-64
2022/05/15 05:06:22;;;;;;;12.27;6.60;;;14.60;99.90;;;;;;5032576;28;20172;-64
2022/05/15 05:08:49;;;;;;;13.25;6.88;;;14.60;99.90;;;;;;5032641;28;20539;-63
2022/05/15 05:11:14;;;;;;;10.52;6.20;;;14.80;99.90;;;;;;5031420;28;20209;-64
2022/05/15 05:13:40;;;;;;;12.55;7.25;;;15.00;99.90;;;;;;5032760;28;20569;-63
2022/05/15 05:16:06;;;;;;;9.85;6.18;;;15.10;99.90;;;;;;5032512;28;20678;-63
2022/05/15 05:18:31;;;;;;;13.68;7.13;;;15.20;99.90;;;;;;5032412;28;20176;-61
2022/05/15 05:20:57;;;;;;;11.77;6.88;;;15.30;99.90;;;;;;5032452;28;20175;-55
2022/05/15 05:23:22;;;;;;;13.75;6.88;;;15.40;99.90;;;;;;5032419;28;20175;-61
2022/05/15 05:25:48;;;;;;;15.75;6.82;;;15.40;99.90;;;;;;5031112;28;20175;-59
2022/05/15 05:28:15;;;;;;;14.00;6.47;;;15.60;99.90;;;;;;5032330;28;20528;-59
2022/05/15 05:30:40;;;;;;;10.60;6.28;;;15.80;99.90;;;;;;5031322;28;20172;-59
2022/05/15 05:33:06;;;;;;;10.43;6.10;;;16.00;99.90;;;;;;5032147;28;20207;-62
2022/05/15 05:35:32;;;;;;;13.15;6.28;;;16.00;99.90;;;;;;5030941;28;20163;-59
2022/05/15 05:37:57;;;;;;;14.95;5.60;;;16.20;99.90;;;;;;5032146;28;20529;-55
2022/05/15 05:40:23;;;;;;;9.18;6.13;;;16.20;99.90;;;;;;5032127;28;20170;-55
2022/05/15 05:42:49;;;;;;;15.07;5.28;;;16.10;99.90;;;;;;5032159;28;20171;-56
2022/05/15 05:45:15;;;;;;;10.20;5.90;;;16.20;99.90;;;;;;5032109;28;20167;-55
2022/05/15 05:47:41;;;;;;;12.10;5.68;;;16.40;99.90;;;;;;5032372;28;20713;-54
2022/05/15 05:50:08;;;;;;;13.38;6.75;;;16.50;99.90;;;;;;5031909;28;20175;-55
2022/05/15 05:52:39;;;;;;;9.27;5.90;;;16.60;99.90;;;;;;5031455;28;20680;-56
2022/05/15 05:55:06;;;;;;;10.45;5.22;;;16.60;99.90;;;;;;5032297;28;20194;-56
2022/05/15 05:57:31;;;;;;;9.15;5.00;;;16.70;99.90;;;;;;5032207;28;20176;-55
2022/05/15 05:59:57;;;;;;;9.68;5.03;;;16.80;99.90;;;;;;5031926;28;20301;-55
2022/05/15 06:02:22;;;;;;;11.18;5.30;;;16.70;99.90;;;;;;5031879;28;20175;-55
2022/05/15 06:04:50;;;;;;;8.35;5.05;;;16.80;99.90;;;;;;5031479;28;20219;-54
2022/05/15 06:07:25;;;;;;;13.70;5.28;;;16.90;99.90;;;;;;5048795;28;20505;-53
2022/05/15 06:09:52;;;;;;;7.85;4.88;;;16.90;99.90;;;;;;5050201;28;20532;-66
2022/05/15 06:12:20;;;;;;;9.65;4.47;;;17.00;99.90;;;;;;5050500;28;20182;-49
2022/05/15 06:14:46;;;;;;;9.38;4.55;;;17.20;99.90;;;;;;5050766;28;20650;-53
2022/05/15 06:17:11;;;;;;;11.68;5.20;;;17.20;99.90;;;;;;5050503;28;20203;-49
2022/05/15 06:19:38;;;;;;;8.65;4.88;;;17.30;99.90;;;;;;5050714;28;20515;-49
2022/05/15 06:22:04;;;;;;;10.73;4.90;;;17.20;99.90;;;;;;5050053;28;20242;-46
2022/05/15 06:24:30;;;;;;;11.68;5.43;;;17.40;99.90;;;;;;5050501;28;20582;-44
2022/05/15 06:27:02;;;;;;;11.57;5.78;;;17.40;99.90;;;;;;5049742;28;20202;-44
2022/05/15 06:29:28;;;;;;;13.85;5.30;;;17.50;99.90;;;;;;5050003;28;20163;-56
2022/05/15 06:31:53;;;;;;;10.48;5.15;;;17.40;99.90;;;;;;5050485;28;20229;-56
2022/05/15 06:34:19;;;;;;;10.70;5.45;;;17.50;99.90;;;;;;5050424;28;20211;-55
2022/05/15 06:36:45;;;;;;;12.25;5.63;;;17.50;99.90;;;;;;5050386;28;20198;-54
2022/05/15 06:39:10;;;;;;;11.68;5.50;;;17.50;99.90;;;;;;5050620;28;20178;-54
2022/05/15 06:41:36;;;;;;;9.70;5.45;;;17.50;99.90;;;;;;5048831;28;20181;-54
2022/05/15 06:44:03;;;;;;;10.15;5.68;;;17.40;99.90;;;;;;5049758;28;21032;-53
2022/05/15 06:46:29;;;;;;;10.38;5.25;;;17.50;99.90;;;;;;5030493;28;20233;-47
2022/05/15 06:48:54;;;;;;;11.52;5.57;;;17.60;99.90;;;;;;5038843;28;20170;-51
2022/05/15 06:51:20;;;;;;;11.80;5.00;;;17.90;99.90;;;;;;5050143;28;20163;-47
2022/05/15 06:53:47;;;;;;;9.65;5.25;;;18.00;99.90;;;;;;5049832;28;20213;-48
2022/05/15 06:58:58;;;;;;;8.07;5.50;;;18.40;99.90;;;;;;5050150;28;20210;-56
2022/05/15 07:01:23;;;;;;;9.23;5.18;;;18.50;99.90;;;;;;5050111;28;20575;-56
2022/05/15 07:03:49;;;;;;;11.02;5.60;;;18.40;99.90;;;;;;5049607;28;20230;-55
2022/05/15 07:06:15;;;;;;;14.15;6.05;;;18.40;99.90;;;;;;5052571;28;20171;-55
2022/05/15 07:08:42;;;;;;;8.02;5.45;;;18.40;99.90;;;;;;5053958;28;20167;-57
2022/05/15 07:11:07;;;;;;;9.55;5.55;;;18.50;99.90;;;;;;5053820;28;20178;-55
2022/05/15 07:13:33;;;;;;;11.30;5.40;;;18.60;99.90;;;;;;5053541;28;20214;-56
2022/05/15 07:15:59;;;;;;;10.32;4.70;;;18.50;99.90;;;;;;5053034;28;20221;-56
2022/05/15 07:18:25;;;;;;;10.13;5.72;;;18.60;99.90;;;;;;5053339;28;20255;-54
2022/05/15 07:20:51;;;;;;;11.02;5.75;;;18.80;99.90;;;;;;5053360;28;20169;-56
2022/05/15 07:23:19;;;;;;;10.35;5.53;;;18.90;99.90;;;;;;5053419;28;20174;-56
2022/05/15 07:25:45;;;;;;;9.48;6.07;;;19.10;99.90;;;;;;5053316;28;20169;-55
2022/05/15 07:28:11;;;;;;;12.63;5.60;;;19.20;99.90;;;;;;5053604;28;20175;-62
2022/05/15 07:30:38;;;;;;;10.00;5.35;;;19.20;99.90;;;;;;5052899;28;20639;-55
2022/05/15 07:33:03;;;;;;;11.65;5.45;;;19.20;99.90;;;;;;5053250;28;20206;-54
2022/05/15 07:35:29;;;;;;;9.65;5.53;;;19.30;99.90;;;;;;5052980;28;20224;-55
2022/05/15 07:37:55;;;;;;;11.75;5.25;;;19.30;99.90;;;;;;5053231;28;20266;-54
2022/05/15 07:40:21;;;;;;;7.93;4.90;;;19.40;99.90;;;;;;5053089;28;20175;-54
2022/05/15 07:42:47;;;;;;;11.13;5.03;;;19.60;99.90;;;;;;5052986;28;20221;-55
2022/05/15 07:45:14;;;;;;;10.00;5.28;;;19.60;99.90;;;;;;5053076;28;20178;-55
2022/05/15 07:47:40;;;;;;;10.80;5.20;;;19.60;99.90;;;;;;5053256;28;20253;-57
2022/05/15 07:50:07;;;;;;;8.80;4.45;;;19.90;99.90;;;;;;5052960;28;20182;-54
2022/05/15 07:52:33;;;;;;;13.15;4.75;;;20.10;99.90;;;;;;5052687;28;20233;-54
2022/05/15 07:55:02;;;;;;;13.75;4.65;;;20.00;99.90;;;;;;5052964;28;20202;-54
2022/05/15 07:57:28;;;;;;;7.22;4.07;;;20.00;99.90;;;;;;5053702;28;20266;-53
2022/05/15 07:59:53;;;;;;;13.27;4.30;;;20.10;99.90;;;;;;5052583;28;20258;-53
2022/05/15 08:02:19;;;;;;;7.25;4.55;;;20.30;99.90;;;;;;5052641;28;20254;-53
2022/05/15 08:10:14;;;;;;;10.70;4.18;;;20.60;99.90;;;;;;5052345;28;20213;-54
2022/05/15 08:12:39;;;;;;;8.88;3.95;;;20.80;99.90;;;;;;5052698;28;20218;-54
2022/05/15 08:15:06;;;;;;;8.70;4.05;;;20.80;99.90;;;;;;5052375;28;20241;-53
2022/05/15 08:17:32;;;;;;;6.28;4.20;;;21.00;99.90;;;;;;5052107;28;20163;-54
2022/05/15 08:25:26;;;;;;;10.98;3.53;;;21.10;99.90;;;;;;5052373;28;20541;-54
2022/05/15 08:27:52;;;;;;;9.32;4.15;;;21.20;99.90;;;;;;5052205;28;20167;-55
2022/05/15 08:30:17;;;;;;;8.48;3.80;;;21.30;99.90;;;;;;5052451;28;20305;-56
2022/05/15 08:32:44;;;;;;;6.47;3.58;;;21.40;99.90;;;;;;5052200;28;20675;-58
2022/05/15 08:35:09;;;;;;;8.40;3.65;;;21.40;99.90;;;;;;5052449;28;20166;-56
2022/05/15 08:37:46;;;;;;;9.38;3.92;;;21.60;99.90;;;;;;5052061;28;20171;-60
2022/05/15 08:40:12;;;;;;;11.75;3.85;;;21.60;99.90;;;;;;5052326;28;20174;-59
2022/05/15 08:42:49;;;;;;;8.02;3.88;;;21.50;99.90;;;;;;5052192;28;20163;-70
2022/05/15 08:45:20;;;;;;;10.32;4.10;;;21.40;99.90;;;;;;5051437;28;20169;-56
2022/05/15 08:47:48;;;;;;;10.65;3.92;;;21.60;99.90;;;;;;5051493;28;20174;-59
2022/05/15 08:50:24;;;;;;;11.30;4.38;;;21.30;99.90;;;;;;5051528;28;20643;-55
2022/05/15 08:53:01;;;;;;;9.32;3.47;;;21.60;99.90;;;;;;5051589;28;20225;-56
2022/05/15 08:55:43;;;;;;;10.52;3.50;;;21.80;99.90;;;;;;5051647;28;20258;-56
2022/05/15 08:58:36;;;;;;;11.65;3.97;;;21.80;99.90;;;;;;5051684;28;20169;-55
2022/05/15 09:01:05;;;;;;;9.93;3.33;;;22.00;99.90;;;;;;5051616;28;20281;-56
2022/05/15 09:03:35;;;;;;;10.25;3.83;;;21.90;99.90;;;;;;5051297;28;20225;-59
2022/05/15 09:06:12;;;;;;;6.97;3.58;;;22.20;99.90;;;;;;5051412;28;20174;-58
2022/05/15 09:08:57;;;;;;;9.82;3.95;;;22.20;99.90;;;;;;5051702;28;20286;-59
2022/05/15 09:11:43;;;;;;;10.63;3.80;;;22.50;99.90;;;;;;5051551;28;20206;-58
2022/05/15 09:14:31;;;;;;;6.68;3.97;;;22.50;99.90;;;;;;5051514;28;20667;-54
2022/05/15 09:17:14;;;;;;;9.15;3.45;;;22.60;99.90;;;;;;5051332;28;20171;-54
2022/05/15 09:19:39;;;;;;;7.47;3.45;;;22.60;99.90;;;;;;5051476;28;20171;-61
2022/05/15 09:22:05;;;;;;;10.85;4.30;;;22.80;99.90;;;;;;5049826;28;20213;-61
2022/05/15 09:24:51;;;;;;;10.80;4.45;;;22.80;99.90;;;;;;5051095;28;20173;-58
2022/05/15 09:27:34;;;;;;;35.90;29.30;;;23.00;99.90;;;;;;5049364;28;20524;-58
2022/05/15 09:30:08;;;;;;;5.72;4.00;;;23.10;99.90;;;;;;5051109;28;20203;-60
2022/05/15 09:32:44;;;;;;;7.45;4.22;;;23.10;99.90;;;;;;5050975;28;20176;-58
2022/05/15 09:35:26;;;;;;;10.45;4.05;;;23.30;99.90;;;;;;5051230;28;20197;-53
2022/05/15 09:43:35;;;;;;;9.68;4.32;;;23.40;99.90;;;;;;5050862;28;20190;-51
2022/05/15 09:46:14;;;;;;;12.50;3.88;;;23.50;99.90;;;;;;5051131;28;20273;-51
2022/05/15 09:49:00;;;;;;;5.63;3.83;;;23.70;99.90;;;;;;5051108;28;20520;-51
2022/05/15 09:51:27;;;;;;;8.63;4.45;;;23.70;99.90;;;;;;5050791;28;20190;-52
2022/05/15 09:53:54;;;;;;;11.13;3.92;;;23.60;99.90;;;;;;5050931;28;20203;-52
2022/05/15 09:56:20;;;;;;;7.75;3.80;;;23.80;99.90;;;;;;5051057;28;20253;-52
2022/05/15 09:58:57;;;;;;;8.25;4.20;;;24.00;99.90;;;;;;5050508;28;20297;-52
2022/05/15 10:01:47;;;;;;;7.47;3.10;;;24.00;99.90;;;;;;5050518;28;20167;-52
2022/05/15 10:04:24;;;;;;;7.10;3.17;;;23.90;99.90;;;;;;5050553;28;20257;-53
2022/05/15 10:06:53;;;;;;;15.25;5.60;;;24.10;99.90;;;;;;5050930;28;20166;-51
2022/05/15 10:09:25;;;;;;;9.48;4.15;;;24.30;99.90;;;;;;5050177;28;20204;-54
2022/05/15 10:11:57;;;;;;;12.15;3.92;;;24.20;99.90;;;;;;5050622;28;20158;-51
2022/05/15 10:14:47;;;;;;;10.48;3.97;;;24.30;99.90;;;;;;5050507;28;20209;-51
2022/05/15 10:17:14;;;;;;;10.30;4.05;;;24.30;99.90;;;;;;5047611;28;20228;-53
2022/05/15 10:19:46;;;;;;;8.50;3.90;;;24.40;99.90;;;;;;5050794;28;20167;-52
2022/05/15 10:22:21;;;;;;;9.25;4.03;;;24.50;99.90;;;;;;5050781;28;20175;-50
2022/05/15 10:24:48;;;;;;;9.65;4.47;;;24.80;99.90;;;;;;5050572;28;20173;-53
2022/05/15 10:27:26;;;;;;;7.32;3.47;;;24.70;99.90;;;;;;5050399;28;20655;-51
2022/05/15 10:30:03;;;;;;;9.02;3.60;;;24.70;99.90;;;;;;5050465;28;20181;-52
2022/05/15 10:32:38;;;;;;;10.98;6.90;;;24.70;99.90;;;;;;5050355;28;20624;-52
2022/05/15 10:35:05;;;;;;;8.73;4.55;;;24.50;99.90;;;;;;5050493;28;20584;-53
2022/05/15 10:37:49;;;;;;;20.95;7.93;;;24.60;99.90;;;;;;5050561;28;20579;-56
2022/05/15 10:40:21;;;;;;;9.88;4.72;;;24.80;99.10;;;;;;5051161;28;20175;-58
2022/05/15 10:43:14;;;;;;;31.17;12.15;;;25.00;99.20;;;;;;5054234;28;20536;-56
2022/05/15 10:46:02;;;;;;;8.40;3.30;;;25.20;99.50;;;;;;5054305;28;20171;-55
2022/05/15 10:48:43;;;;;;;19.67;7.07;;;25.20;99.30;;;;;;5054209;28;20733;-54
2022/05/15 10:51:26;;;;;;;10.32;3.53;;;25.00;98.10;;;;;;5054221;28;20217;-58
2022/05/15 10:57:42;;;;;;;39.78;19.58;;;25.40;95.90;;;;;;5054113;28;20177;-53
2022/05/15 11:00:20;;;;;;;18.38;12.10;;;25.20;95.40;;;;;;5054189;28;20163;-61
2022/05/15 11:02:57;;;;;;;6.60;3.67;;;25.70;95.80;;;;;;5053724;28;20670;-54
2022/05/15 11:05:28;;;;;;;6.25;2.85;;;25.60;94.60;;;;;;5053601;28;20215;-59
2022/05/15 11:08:23;;;;;;;5.72;2.75;;;25.80;95.60;;;;;;5044296;28;20171;-51
2022/05/15 11:11:10;;;;;;;8.20;3.50;;;25.60;93.80;;;;;;5043845;28;20175;-51
2022/05/15 11:13:53;;;;;;;7.63;2.95;;;25.80;93.60;;;;;;5042038;28;20600;-58
2022/05/15 11:16:21;;;;;;;6.05;2.63;;;25.70;93.10;;;;;;5042330;28;20167;-53
2022/05/15 11:19:11;;;;;;;7.55;2.90;;;26.10;93.00;;;;;;5037443;28;20190;-60
2022/05/15 11:22:10;;;;;;;8.50;2.92;;;26.00;92.10;;;;;;5033614;28;20178;-55
2022/05/15 11:24:46;;;;;;;7.07;2.67;;;25.60;91.80;;;;;;5033023;28;20531;-51
2022/05/15 11:27:24;;;;;;;7.78;2.42;;;25.50;91.70;;;;;;5033802;28;20310;-54
2022/05/15 11:29:52;;;;;;;5.90;2.58;;;25.50;93.30;;;;;;5033438;28;20175;-54
2022/05/15 11:32:39;;;;;;;4.55;2.60;;;25.60;90.70;;;;;;5033204;28;20159;-52
2022/05/15 11:35:22;;;;;;;4.68;2.50;;;25.70;90.20;;;;;;5033207;28;20194;-55
2022/05/15 11:37:56;;;;;;;6.68;2.92;;;25.60;90.00;;;;;;5033107;28;20254;-55
2022/05/15 11:40:45;;;;;;;6.18;2.60;;;25.80;90.10;;;;;;5032942;28;20170;-50
2022/05/15 11:43:26;;;;;;;9.00;2.95;;;25.70;90.30;;;;;;5033450;28;20175;-55
2022/05/15 11:45:52;;;;;;;6.35;2.28;;;25.80;88.60;;;;;;5032919;28;20683;-55
2022/05/15 11:48:17;;;;;;;7.18;2.63;;;25.90;90.30;;;;;;5032815;28;20202;-52
2022/05/15 11:51:01;;;;;;;6.18;2.75;;;26.20;88.60;;;;;;5031134;28;20206;-53
2022/05/15 11:53:35;;;;;;;6.22;2.58;;;26.30;84.80;;;;;;5032412;28;20194;-54
2022/05/15 11:56:21;;;;;;;5.95;2.63;;;26.20;85.50;;;;;;5032944;28;20594;-51
2022/05/15 11:58:57;;;;;;;7.75;2.40;;;26.40;79.80;;;;;;5021590;28;20221;-55
2022/05/15 12:01:31;;;;;;;7.15;2.63;;;26.50;79.60;;;;;;5032085;28;20178;-55
2022/05/15 12:04:04;;;;;;;4.90;2.45;;;26.00;77.00;;;;;;5032649;28;20301;-55
2022/05/15 12:06:32;;;;;;;6.20;2.67;;;26.10;78.60;;;;;;5032411;28;20269;-63
2022/05/15 12:09:16;;;;;;;5.03;2.33;;;26.30;79.80;;;;;;5032823;28;20671;-53
2022/05/15 12:11:50;;;;;;;7.28;2.30;;;26.30;82.10;;;;;;5033039;28;20205;-52
2022/05/15 12:14:21;;;;;;;4.53;2.40;;;26.30;82.30;;;;;;5032607;28;20571;-54
2022/05/15 12:16:58;;;;;;;5.47;2.40;;;26.70;80.40;;;;;;5032340;28;20234;-52
2022/05/15 12:19:34;;;;;;;7.20;2.70;;;26.70;77.50;;;;;;5032216;28;20163;-50
2022/05/15 12:22:07;;;;;;;4.75;2.67;;;26.80;77.80;;;;;;5032164;28;20170;-55
2022/05/15 12:24:36;;;;;;;5.22;1.98;;;27.10;78.10;;;;;;5032178;28;20675;-54
2022/05/15 12:27:19;;;;;;;7.28;2.20;;;27.00;74.10;;;;;;5032008;28;20174;-57
2022/05/15 12:29:50;;;;;;;5.90;2.28;;;26.60;73.30;;;;;;5032333;28;20193;-52
2022/05/15 12:32:28;;;;;;;3.20;2.13;;;26.70;73.70;;;;;;5032047;28;20305;-56
2022/05/15 12:34:54;;;;;;;4.38;2.10;;;26.70;73.80;;;;;;5032088;28;20260;-59
2022/05/15 12:37:24;;;;;;;9.45;2.13;;;27.00;74.80;;;;;;5032018;28;20178;-53
2022/05/15 12:39:52;;;;;;;5.85;2.17;;;27.20;75.50;;;;;;5031962;28;20170;-54
2022/05/15 12:42:38;;;;;;;6.32;2.47;;;27.30;74.10;;;;;;5032192;28;20178;-52
2022/05/15 12:45:14;;;;;;;10.02;3.38;;;27.30;72.00;;;;;;5030428;28;20647;-57
2022/05/15 12:47:41;;;;;;;6.32;4.00;;;27.20;69.60;;;;;;5032124;28;20624;-56
2022/05/15 12:50:20;;;;;;;4.05;2.40;;;27.30;69.60;;;;;;5031803;28;20651;-53
2022/05/15 12:52:52;;;;;;;8.50;4.07;;;27.50;71.30;;;;;;5031846;28;20210;-56
2022/05/15 12:55:36;;;;;;;10.80;5.93;;;27.60;70.80;;;;;;5031612;28;20543;-54
2022/05/15 12:58:05;;;;;;;8.27;4.88;;;27.70;69.30;;;;;;5031646;28;20166;-52
2022/05/15 13:00:41;;;;;;;6.65;2.63;;;27.70;70.10;;;;;;5031792;28;20189;-50
2022/05/15 13:03:09;;;;;;;9.45;3.35;;;27.40;69.40;;;;;;5030791;28;20591;-50
2022/05/15 13:05:51;;;;;;;4.43;2.20;;;27.40;69.80;;;;;;5031418;28;20205;-54
2022/05/15 13:08:17;;;;;;;5.55;2.20;;;27.40;68.10;;;;;;5031344;28;20257;-52
2022/05/15 13:11:00;;;;;;;4.90;2.30;;;27.40;67.40;;;;;;5031891;28;20535;-50
2022/05/15 13:13:34;;;;;;;6.93;2.75;;;27.10;67.50;;;;;;5031174;28;20241;-51
2022/05/15 13:16:00;;;;;;;6.00;2.45;;;27.20;66.70;;;;;;5031139;28;20170;-51
2022/05/15 13:18:33;;;;;;;3.13;2.13;;;27.40;66.10;;;;;;5031307;28;20647;-50